sensor_id;sensor_type;location;lat;lon;timestamp;P1;durP1;ratioP1;P2;durP2;ratioP2
3006;SDS011;1513;47.650;10.720;2023-05-02T00:00:47;1.70;;;1.60;;
3006;SDS011;1513;47.650;10.720;2023-05-02T00:03:13;2.10;;;1.90;;
3006;SDS011;1513;47.650;10.720;2023-05-02T00:05:41;2.33;;;1.47;;
3006;SDS011;1513;47.650;10.720;2023-05-02T00:08:07;3.80;;;1.80;;
3006;SDS011;1513;47.650;10.720;2023-05-02T00:10:34;1.63;;;1.53;;
3006;SDS011;1513;47.650;10.720;2023-05-02T00:13:00;1.67;;;1.57;;
3006;SDS011;1513;47.650;10.720;2023-05-02T00:15:26;1.67;;;1.47;;
3006;SDS011;1513;47.650;10.720;2023-05-02T00:17:53;1.37;;;1.27;;
3006;SDS011;1513;47.650;10.720;2023-05-02T00:20:19;1.40;;;1.17;;
3006;SDS011;1513;47.650;10.720;2023-05-02T00:22:45;2.17;;;1.60;;
3006;SDS011;1513;47.650;10.720;2023-05-02T00:25:12;1.50;;;1.40;;
3006;SDS011;1513;47.650;10.720;2023-05-02T00:27:40;1.73;;;1.17;;
3006;SDS011;1513;47.650;10.720;2023-05-02T00:30:07;1.30;;;1.20;;
3006;SDS011;1513;47.650;10.720;2023-05-02T00:32:34;1.20;;;1.10;;
3006;SDS011;1513;47.650;10.720;2023-05-02T00:35:01;1.03;;;1.03;;
3006;SDS011;1513;47.650;10.720;2023-05-02T00:37:27;1.27;;;1.17;;
3006;SDS011;1513;47.650;10.720;2023-05-02T00:39:53;1.23;;;1.10;;
3006;SDS011;1513;47.650;10.720;2023-05-02T00:42:20;1.30;;;1.30;;
3006;SDS011;1513;47.650;10.720;2023-05-02T00:44:46;1.20;;;1.10;;
3006;SDS011;1513;47.650;10.720;2023-05-02T00:47:13;1.30;;;1.20;;
3006;SDS011;1513;47.650;10.720;2023-05-02T00:49:40;1.20;;;1.20;;
3006;SDS011;1513;47.650;10.720;2023-05-02T00:52:07;1.83;;;1.70;;
3006;SDS011;1513;47.650;10.720;2023-05-02T00:54:34;1.77;;;1.20;;
3006;SDS011;1513;47.650;10.720;2023-05-02T00:57:03;1.33;;;1.23;;
3006;SDS011;1513;47.650;10.720;2023-05-02T00:59:30;1.93;;;1.27;;
3006;SDS011;1513;47.650;10.720;2023-05-02T01:02:08;2.57;;;1.60;;
3006;SDS011;1513;47.650;10.720;2023-05-02T01:05:11;1.77;;;1.67;;
3006;SDS011;1513;47.650;10.720;2023-05-02T01:10:39;2.20;;;2.00;;
3006;SDS011;1513;47.650;10.720;2023-05-02T01:13:25;1.60;;;1.50;;
3006;SDS011;1513;47.650;10.720;2023-05-02T01:15:54;2.00;;;1.43;;
3006;SDS011;1513;47.650;10.720;2023-05-02T01:18:25;2.00;;;1.90;;
3006;SDS011;1513;47.650;10.720;2023-05-02T01:21:00;1.50;;;1.40;;
3006;SDS011;1513;47.650;10.720;2023-05-02T01:28:54;1.63;;;1.53;;
3006;SDS011;1513;47.650;10.720;2023-05-02T01:31:28;1.50;;;1.40;;
3006;SDS011;1513;47.650;10.720;2023-05-02T01:33:56;1.57;;;1.47;;
3006;SDS011;1513;47.650;10.720;2023-05-02T01:36:25;1.13;;;1.13;;
3006;SDS011;1513;47.650;10.720;2023-05-02T01:38:54;1.70;;;1.60;;
3006;SDS011;1513;47.650;10.720;2023-05-02T01:41:24;1.47;;;1.37;;
3006;SDS011;1513;47.650;10.720;2023-05-02T01:43:56;1.50;;;1.40;;
3006;SDS011;1513;47.650;10.720;2023-05-02T01:46:26;2.00;;;1.40;;
3006;SDS011;1513;47.650;10.720;2023-05-02T01:48:56;1.57;;;1.47;;
3006;SDS011;1513;47.650;10.720;2023-05-02T01:51:25;2.27;;;1.50;;
3006;SDS011;1513;47.650;10.720;2023-05-02T01:53:57;1.57;;;1.47;;
3006;SDS011;1513;47.650;10.720;2023-05-02T01:56:26;1.93;;;1.67;;
3006;SDS011;1513;47.650;10.720;2023-05-02T01:58:54;1.80;;;1.70;;
3006;SDS011;1513;47.650;10.720;2023-05-02T02:01:22;2.10;;;1.77;;
3006;SDS011;1513;47.650;10.720;2023-05-02T02:03:53;2.43;;;1.70;;
3006;SDS011;1513;47.650;10.720;2023-05-02T02:06:20;1.60;;;1.50;;
3006;SDS011;1513;47.650;10.720;2023-05-02T02:08:47;1.50;;;1.40;;
3006;SDS011;1513;47.650;10.720;2023-05-02T02:11:16;1.33;;;1.30;;
3006;SDS011;1513;47.650;10.720;2023-05-02T02:13:52;1.63;;;1.53;;
3006;SDS011;1513;47.650;10.720;2023-05-02T02:16:27;1.50;;;1.40;;
3006;SDS011;1513;47.650;10.720;2023-05-02T02:18:55;1.53;;;1.40;;
3006;SDS011;1513;47.650;10.720;2023-05-02T02:21:25;1.10;;;1.03;;
3006;SDS011;1513;47.650;10.720;2023-05-02T02:23:54;1.23;;;1.17;;
3006;SDS011;1513;47.650;10.720;2023-05-02T02:26:22;1.30;;;1.20;;
3006;SDS011;1513;47.650;10.720;2023-05-02T02:28:48;1.07;;;1.07;;
3006;SDS011;1513;47.650;10.720;2023-05-02T02:31:15;1.30;;;1.20;;
3006;SDS011;1513;47.650;10.720;2023-05-02T02:33:41;1.43;;;1.33;;
3006;SDS011;1513;47.650;10.720;2023-05-02T02:36:15;0.90;;;0.87;;
3006;SDS011;1513;47.650;10.720;2023-05-02T02:39:27;1.30;;;1.20;;
3006;SDS011;1513;47.650;10.720;2023-05-02T02:42:01;1.63;;;1.50;;
3006;SDS011;1513;47.650;10.720;2023-05-02T02:52:58;1.20;;;1.20;;
3006;SDS011;1513;47.650;10.720;2023-05-02T02:55:40;1.00;;;1.00;;
3006;SDS011;1513;47.650;10.720;2023-05-02T03:01:05;1.20;;;1.10;;
3006;SDS011;1513;47.650;10.720;2023-05-02T03:03:36;1.10;;;1.00;;
3006;SDS011;1513;47.650;10.720;2023-05-02T03:06:05;1.00;;;1.00;;
3006;SDS011;1513;47.650;10.720;2023-05-02T03:08:38;0.97;;;0.97;;
3006;SDS011;1513;47.650;10.720;2023-05-02T03:11:07;1.30;;;1.20;;
3006;SDS011;1513;47.650;10.720;2023-05-02T03:13:34;1.20;;;1.20;;
3006;SDS011;1513;47.650;10.720;2023-05-02T03:18:49;1.47;;;1.37;;
3006;SDS011;1513;47.650;10.720;2023-05-02T03:21:15;1.40;;;1.30;;
3006;SDS011;1513;47.650;10.720;2023-05-02T03:23:42;1.53;;;1.40;;
3006;SDS011;1513;47.650;10.720;2023-05-02T03:26:08;1.03;;;1.00;;
3006;SDS011;1513;47.650;10.720;2023-05-02T03:28:35;1.70;;;1.60;;
3006;SDS011;1513;47.650;10.720;2023-05-02T03:31:02;1.50;;;1.40;;
3006;SDS011;1513;47.650;10.720;2023-05-02T03:33:33;1.20;;;1.20;;
3006;SDS011;1513;47.650;10.720;2023-05-02T03:36:00;1.17;;;1.17;;
3006;SDS011;1513;47.650;10.720;2023-05-02T03:38:28;1.43;;;1.33;;
3006;SDS011;1513;47.650;10.720;2023-05-02T03:40:57;2.33;;;1.47;;
3006;SDS011;1513;47.650;10.720;2023-05-02T03:43:24;1.30;;;1.20;;
3006;SDS011;1513;47.650;10.720;2023-05-02T03:45:51;1.30;;;1.30;;
3006;SDS011;1513;47.650;10.720;2023-05-02T03:48:18;1.30;;;1.30;;
3006;SDS011;1513;47.650;10.720;2023-05-02T03:50:45;1.20;;;1.20;;
3006;SDS011;1513;47.650;10.720;2023-05-02T03:53:11;1.70;;;1.60;;
3006;SDS011;1513;47.650;10.720;2023-05-02T03:55:47;2.00;;;1.80;;
3006;SDS011;1513;47.650;10.720;2023-05-02T03:58:22;1.77;;;1.50;;
3006;SDS011;1513;47.650;10.720;2023-05-02T04:00:50;2.73;;;1.40;;
3006;SDS011;1513;47.650;10.720;2023-05-02T04:03:20;1.60;;;1.50;;
3006;SDS011;1513;47.650;10.720;2023-05-02T04:05:47;1.53;;;1.43;;
3006;SDS011;1513;47.650;10.720;2023-05-02T04:08:16;1.53;;;1.43;;
3006;SDS011;1513;47.650;10.720;2023-05-02T04:10:43;2.27;;;1.80;;
3006;SDS011;1513;47.650;10.720;2023-05-02T04:13:10;2.00;;;1.80;;
3006;SDS011;1513;47.650;10.720;2023-05-02T04:15:40;2.90;;;2.70;;
3006;SDS011;1513;47.650;10.720;2023-05-02T04:18:07;2.60;;;2.40;;
3006;SDS011;1513;47.650;10.720;2023-05-02T04:20:34;2.23;;;2.13;;
3006;SDS011;1513;47.650;10.720;2023-05-02T04:23:01;3.10;;;2.80;;
3006;SDS011;1513;47.650;10.720;2023-05-02T04:25:27;3.83;;;3.40;;
3006;SDS011;1513;47.650;10.720;2023-05-02T04:27:56;5.03;;;3.90;;
3006;SDS011;1513;47.650;10.720;2023-05-02T04:30:24;6.60;;;3.70;;
3006;SDS011;1513;47.650;10.720;2023-05-02T04:33:04;3.43;;;3.13;;
3006;SDS011;1513;47.650;10.720;2023-05-02T04:35:34;3.80;;;3.30;;
3006;SDS011;1513;47.650;10.720;2023-05-02T04:38:02;2.83;;;2.60;;
3006;SDS011;1513;47.650;10.720;2023-05-02T04:40:29;3.20;;;3.00;;
3006;SDS011;1513;47.650;10.720;2023-05-02T04:43:00;2.50;;;2.33;;
3006;SDS011;1513;47.650;10.720;2023-05-02T04:45:34;2.57;;;2.37;;
3006;SDS011;1513;47.650;10.720;2023-05-02T04:48:03;4.23;;;3.30;;
3006;SDS011;1513;47.650;10.720;2023-05-02T04:50:30;4.40;;;3.40;;
3006;SDS011;1513;47.650;10.720;2023-05-02T04:52:57;4.03;;;3.50;;
3006;SDS011;1513;47.650;10.720;2023-05-02T04:55:24;4.90;;;3.70;;
3006;SDS011;1513;47.650;10.720;2023-05-02T04:57:51;5.70;;;3.40;;
3006;SDS011;1513;47.650;10.720;2023-05-02T05:00:17;5.97;;;4.23;;
3006;SDS011;1513;47.650;10.720;2023-05-02T05:02:44;11.10;;;5.50;;
3006;SDS011;1513;47.650;10.720;2023-05-02T05:05:12;10.60;;;7.90;;
3006;SDS011;1513;47.650;10.720;2023-05-02T05:07:38;7.30;;;6.07;;
3006;SDS011;1513;47.650;10.720;2023-05-02T05:10:06;5.20;;;4.40;;
3006;SDS011;1513;47.650;10.720;2023-05-02T05:12:39;4.77;;;3.87;;
3006;SDS011;1513;47.650;10.720;2023-05-02T05:15:06;2.67;;;2.47;;
3006;SDS011;1513;47.650;10.720;2023-05-02T05:17:33;2.77;;;2.43;;
3006;SDS011;1513;47.650;10.720;2023-05-02T05:20:02;3.90;;;2.87;;
3006;SDS011;1513;47.650;10.720;2023-05-02T05:22:30;3.57;;;3.13;;
3006;SDS011;1513;47.650;10.720;2023-05-02T05:24:56;4.53;;;3.40;;
3006;SDS011;1513;47.650;10.720;2023-05-02T05:27:27;5.43;;;3.50;;
3006;SDS011;1513;47.650;10.720;2023-05-02T05:29:54;3.63;;;3.00;;
3006;SDS011;1513;47.650;10.720;2023-05-02T05:32:20;1.50;;;1.40;;
3006;SDS011;1513;47.650;10.720;2023-05-02T05:34:50;1.70;;;1.60;;
3006;SDS011;1513;47.650;10.720;2023-05-02T05:37:19;1.10;;;1.10;;
3006;SDS011;1513;47.650;10.720;2023-05-02T05:39:46;1.57;;;1.27;;
3006;SDS011;1513;47.650;10.720;2023-05-02T05:42:12;1.30;;;1.20;;
3006;SDS011;1513;47.650;10.720;2023-05-02T05:44:41;1.00;;;1.00;;
3006;SDS011;1513;47.650;10.720;2023-05-02T05:47:08;1.03;;;1.03;;
3006;SDS011;1513;47.650;10.720;2023-05-02T05:49:34;0.93;;;0.93;;
3006;SDS011;1513;47.650;10.720;2023-05-02T05:52:01;1.30;;;1.20;;
3006;SDS011;1513;47.650;10.720;2023-05-02T05:54:27;2.60;;;1.13;;
3006;SDS011;1513;47.650;10.720;2023-05-02T05:56:54;1.53;;;1.43;;
3006;SDS011;1513;47.650;10.720;2023-05-02T05:59:20;1.90;;;1.80;;
3006;SDS011;1513;47.650;10.720;2023-05-02T06:01:47;1.80;;;1.70;;
3006;SDS011;1513;47.650;10.720;2023-05-02T06:04:15;2.60;;;2.13;;
3006;SDS011;1513;47.650;10.720;2023-05-02T06:06:45;1.47;;;1.30;;
3006;SDS011;1513;47.650;10.720;2023-05-02T06:09:11;1.40;;;1.30;;
3006;SDS011;1513;47.650;10.720;2023-05-02T06:11:38;1.43;;;1.33;;
3006;SDS011;1513;47.650;10.720;2023-05-02T06:14:05;1.73;;;1.63;;
3006;SDS011;1513;47.650;10.720;2023-05-02T06:16:32;1.57;;;1.47;;
3006;SDS011;1513;47.650;10.720;2023-05-02T06:18:58;1.40;;;1.30;;
3006;SDS011;1513;47.650;10.720;2023-05-02T06:21:24;1.60;;;1.50;;
3006;SDS011;1513;47.650;10.720;2023-05-02T06:23:51;1.60;;;1.50;;
3006;SDS011;1513;47.650;10.720;2023-05-02T06:26:17;2.10;;;1.90;;
3006;SDS011;1513;47.650;10.720;2023-05-02T06:28:43;4.03;;;2.00;;
3006;SDS011;1513;47.650;10.720;2023-05-02T06:31:10;1.90;;;1.80;;
3006;SDS011;1513;47.650;10.720;2023-05-02T06:33:36;2.97;;;1.70;;
3006;SDS011;1513;47.650;10.720;2023-05-02T06:36:03;2.33;;;2.20;;
3006;SDS011;1513;47.650;10.720;2023-05-02T06:38:29;2.13;;;1.93;;
3006;SDS011;1513;47.650;10.720;2023-05-02T06:40:55;2.03;;;1.93;;
3006;SDS011;1513;47.650;10.720;2023-05-02T06:43:22;2.33;;;2.13;;
3006;SDS011;1513;47.650;10.720;2023-05-02T06:45:51;2.23;;;1.83;;
3006;SDS011;1513;47.650;10.720;2023-05-02T06:48:18;7.73;;;2.10;;
3006;SDS011;1513;47.650;10.720;2023-05-02T06:50:46;2.13;;;2.03;;
3006;SDS011;1513;47.650;10.720;2023-05-02T06:53:12;1.87;;;1.77;;
3006;SDS011;1513;47.650;10.720;2023-05-02T06:55:39;2.20;;;1.60;;
3006;SDS011;1513;47.650;10.720;2023-05-02T06:58:05;4.30;;;1.83;;
3006;SDS011;1513;47.650;10.720;2023-05-02T07:00:32;2.10;;;1.90;;
3006;SDS011;1513;47.650;10.720;2023-05-02T07:02:58;1.87;;;1.73;;
3006;SDS011;1513;47.650;10.720;2023-05-02T07:05:25;2.00;;;1.90;;
3006;SDS011;1513;47.650;10.720;2023-05-02T07:07:51;4.57;;;2.50;;
3006;SDS011;1513;47.650;10.720;2023-05-02T07:10:17;2.27;;;2.10;;
3006;SDS011;1513;47.650;10.720;2023-05-02T07:12:43;3.00;;;2.73;;
3006;SDS011;1513;47.650;10.720;2023-05-02T07:15:10;4.73;;;3.73;;
3006;SDS011;1513;47.650;10.720;2023-05-02T07:17:38;6.80;;;4.27;;
3006;SDS011;1513;47.650;10.720;2023-05-02T07:20:05;5.87;;;4.67;;
3006;SDS011;1513;47.650;10.720;2023-05-02T07:22:34;5.80;;;4.70;;
3006;SDS011;1513;47.650;10.720;2023-05-02T07:25:01;7.10;;;4.40;;
3006;SDS011;1513;47.650;10.720;2023-05-02T07:27:27;8.20;;;6.20;;
3006;SDS011;1513;47.650;10.720;2023-05-02T07:29:53;8.13;;;5.30;;
3006;SDS011;1513;47.650;10.720;2023-05-02T07:32:20;8.20;;;5.07;;
3006;SDS011;1513;47.650;10.720;2023-05-02T07:34:46;7.90;;;5.87;;
3006;SDS011;1513;47.650;10.720;2023-05-02T07:37:13;9.20;;;5.63;;
3006;SDS011;1513;47.650;10.720;2023-05-02T07:39:39;6.17;;;4.83;;
3006;SDS011;1513;47.650;10.720;2023-05-02T07:42:05;8.33;;;4.47;;
3006;SDS011;1513;47.650;10.720;2023-05-02T07:44:32;11.93;;;4.20;;
3006;SDS011;1513;47.650;10.720;2023-05-02T07:47:00;4.67;;;3.90;;
3006;SDS011;1513;47.650;10.720;2023-05-02T07:49:26;5.57;;;4.40;;
3006;SDS011;1513;47.650;10.720;2023-05-02T07:51:52;5.43;;;4.17;;
3006;SDS011;1513;47.650;10.720;2023-05-02T07:54:19;5.87;;;4.30;;
3006;SDS011;1513;47.650;10.720;2023-05-02T07:56:46;4.70;;;3.97;;
3006;SDS011;1513;47.650;10.720;2023-05-02T07:59:13;4.37;;;3.97;;
3006;SDS011;1513;47.650;10.720;2023-05-02T08:01:39;5.23;;;4.27;;
3006;SDS011;1513;47.650;10.720;2023-05-02T08:04:06;4.93;;;3.50;;
3006;SDS011;1513;47.650;10.720;2023-05-02T08:06:34;5.40;;;3.73;;
3006;SDS011;1513;47.650;10.720;2023-05-02T08:09:01;6.10;;;3.27;;
3006;SDS011;1513;47.650;10.720;2023-05-02T08:11:27;5.03;;;4.20;;
3006;SDS011;1513;47.650;10.720;2023-05-02T08:13:53;6.13;;;3.57;;
3006;SDS011;1513;47.650;10.720;2023-05-02T08:16:20;4.43;;;3.57;;
3006;SDS011;1513;47.650;10.720;2023-05-02T08:18:46;3.63;;;3.23;;
3006;SDS011;1513;47.650;10.720;2023-05-02T08:21:12;5.77;;;4.30;;
3006;SDS011;1513;47.650;10.720;2023-05-02T08:23:39;6.30;;;4.17;;
3006;SDS011;1513;47.650;10.720;2023-05-02T08:26:06;4.40;;;3.70;;
3006;SDS011;1513;47.650;10.720;2023-05-02T08:28:35;4.93;;;3.57;;
3006;SDS011;1513;47.650;10.720;2023-05-02T08:31:01;8.27;;;5.57;;
3006;SDS011;1513;47.650;10.720;2023-05-02T08:33:28;7.73;;;6.20;;
3006;SDS011;1513;47.650;10.720;2023-05-02T08:35:54;8.77;;;6.30;;
3006;SDS011;1513;47.650;10.720;2023-05-02T08:38:20;10.00;;;7.47;;
3006;SDS011;1513;47.650;10.720;2023-05-02T08:40:46;8.77;;;6.30;;
3006;SDS011;1513;47.650;10.720;2023-05-02T08:43:14;9.80;;;7.00;;
3006;SDS011;1513;47.650;10.720;2023-05-02T08:45:42;7.73;;;6.43;;
3006;SDS011;1513;47.650;10.720;2023-05-02T08:48:10;8.13;;;6.20;;
3006;SDS011;1513;47.650;10.720;2023-05-02T08:50:41;8.60;;;6.90;;
3006;SDS011;1513;47.650;10.720;2023-05-02T08:53:10;6.67;;;5.80;;
3006;SDS011;1513;47.650;10.720;2023-05-02T08:55:39;8.40;;;6.10;;
3006;SDS011;1513;47.650;10.720;2023-05-02T08:58:08;8.20;;;5.53;;
3006;SDS011;1513;47.650;10.720;2023-05-02T09:00:39;6.87;;;5.17;;
3006;SDS011;1513;47.650;10.720;2023-05-02T09:03:17;7.77;;;6.00;;
3006;SDS011;1513;47.650;10.720;2023-05-02T09:05:52;7.93;;;5.73;;
3006;SDS011;1513;47.650;10.720;2023-05-02T09:08:22;7.70;;;6.50;;
3006;SDS011;1513;47.650;10.720;2023-05-02T09:10:48;8.93;;;6.40;;
3006;SDS011;1513;47.650;10.720;2023-05-02T09:16:13;9.43;;;6.63;;
3006;SDS011;1513;47.650;10.720;2023-05-02T09:21:15;7.50;;;5.93;;
3006;SDS011;1513;47.650;10.720;2023-05-02T09:23:42;9.60;;;7.03;;
3006;SDS011;1513;47.650;10.720;2023-05-02T09:26:15;10.87;;;7.43;;
3006;SDS011;1513;47.650;10.720;2023-05-02T09:28:49;9.50;;;7.30;;
3006;SDS011;1513;47.650;10.720;2023-05-02T09:31:18;9.77;;;6.73;;
3006;SDS011;1513;47.650;10.720;2023-05-02T09:33:52;10.73;;;7.40;;
3006;SDS011;1513;47.650;10.720;2023-05-02T09:36:19;7.67;;;5.97;;
3006;SDS011;1513;47.650;10.720;2023-05-02T09:38:46;7.73;;;5.87;;
3006;SDS011;1513;47.650;10.720;2023-05-02T09:41:14;6.83;;;5.50;;
3006;SDS011;1513;47.650;10.720;2023-05-02T09:43:42;8.87;;;6.43;;
3006;SDS011;1513;47.650;10.720;2023-05-02T09:46:18;7.93;;;5.53;;
3006;SDS011;1513;47.650;10.720;2023-05-02T09:48:52;9.33;;;6.40;;
3006;SDS011;1513;47.650;10.720;2023-05-02T09:51:20;8.23;;;6.70;;
3006;SDS011;1513;47.650;10.720;2023-05-02T09:53:48;7.53;;;6.73;;
3006;SDS011;1513;47.650;10.720;2023-05-02T09:56:14;11.13;;;8.03;;
3006;SDS011;1513;47.650;10.720;2023-05-02T09:58:41;8.47;;;6.93;;
3006;SDS011;1513;47.650;10.720;2023-05-02T10:01:10;7.53;;;6.67;;
3006;SDS011;1513;47.650;10.720;2023-05-02T10:03:47;9.87;;;8.13;;
3006;SDS011;1513;47.650;10.720;2023-05-02T10:06:14;12.80;;;7.60;;
3006;SDS011;1513;47.650;10.720;2023-05-02T10:08:42;9.83;;;7.70;;
3006;SDS011;1513;47.650;10.720;2023-05-02T10:11:11;8.43;;;7.03;;
3006;SDS011;1513;47.650;10.720;2023-05-02T10:13:38;9.13;;;7.90;;
3006;SDS011;1513;47.650;10.720;2023-05-02T10:16:07;7.57;;;6.80;;
3006;SDS011;1513;47.650;10.720;2023-05-02T10:18:55;11.17;;;7.03;;
3006;SDS011;1513;47.650;10.720;2023-05-02T10:21:27;11.57;;;7.00;;
3006;SDS011;1513;47.650;10.720;2023-05-02T10:23:53;9.37;;;6.60;;
3006;SDS011;1513;47.650;10.720;2023-05-02T10:26:20;8.53;;;6.67;;
3006;SDS011;1513;47.650;10.720;2023-05-02T10:28:48;9.70;;;6.20;;
3006;SDS011;1513;47.650;10.720;2023-05-02T10:31:15;9.00;;;6.50;;
3006;SDS011;1513;47.650;10.720;2023-05-02T10:33:42;8.60;;;6.17;;
3006;SDS011;1513;47.650;10.720;2023-05-02T10:36:09;10.37;;;7.77;;
3006;SDS011;1513;47.650;10.720;2023-05-02T10:38:39;11.83;;;8.90;;
3006;SDS011;1513;47.650;10.720;2023-05-02T10:41:17;10.80;;;7.73;;
3006;SDS011;1513;47.650;10.720;2023-05-02T10:43:46;11.13;;;7.90;;
3006;SDS011;1513;47.650;10.720;2023-05-02T10:46:29;12.87;;;9.83;;
3006;SDS011;1513;47.650;10.720;2023-05-02T10:51:31;9.90;;;7.43;;
3006;SDS011;1513;47.650;10.720;2023-05-02T10:57:02;14.83;;;10.13;;
3006;SDS011;1513;47.650;10.720;2023-05-02T10:59:33;11.57;;;8.50;;
3006;SDS011;1513;47.650;10.720;2023-05-02T11:02:02;14.03;;;10.00;;
3006;SDS011;1513;47.650;10.720;2023-05-02T11:07:28;10.40;;;7.53;;
3006;SDS011;1513;47.650;10.720;2023-05-02T11:20:34;11.47;;;8.83;;
3006;SDS011;1513;47.650;10.720;2023-05-02T11:23:34;10.97;;;8.13;;
3006;SDS011;1513;47.650;10.720;2023-05-02T11:25:55;11.13;;;7.80;;
3006;SDS011;1513;47.650;10.720;2023-05-02T11:28:40;11.50;;;8.53;;
3006;SDS011;1513;47.650;10.720;2023-05-02T11:33:57;8.93;;;7.40;;
3006;SDS011;1513;47.650;10.720;2023-05-02T11:36:30;12.33;;;7.07;;
3006;SDS011;1513;47.650;10.720;2023-05-02T11:38:59;8.83;;;6.70;;
3006;SDS011;1513;47.650;10.720;2023-05-02T11:41:38;10.00;;;7.10;;
3006;SDS011;1513;47.650;10.720;2023-05-02T11:44:05;9.07;;;7.40;;
3006;SDS011;1513;47.650;10.720;2023-05-02T11:46:31;8.20;;;6.00;;
3006;SDS011;1513;47.650;10.720;2023-05-02T11:49:00;7.27;;;6.43;;
3006;SDS011;1513;47.650;10.720;2023-05-02T11:51:27;5.43;;;4.90;;
3006;SDS011;1513;47.650;10.720;2023-05-02T11:53:53;6.20;;;5.60;;
3006;SDS011;1513;47.650;10.720;2023-05-02T11:56:24;5.47;;;4.90;;
3006;SDS011;1513;47.650;10.720;2023-05-02T11:59:02;7.07;;;5.60;;
3006;SDS011;1513;47.650;10.720;2023-05-02T12:01:29;7.37;;;5.17;;
3006;SDS011;1513;47.650;10.720;2023-05-02T12:04:05;5.10;;;4.60;;
3006;SDS011;1513;47.650;10.720;2023-05-02T12:06:32;5.87;;;5.10;;
3006;SDS011;1513;47.650;10.720;2023-05-02T12:09:08;5.90;;;4.77;;
3006;SDS011;1513;47.650;10.720;2023-05-02T12:11:37;6.80;;;4.80;;
3006;SDS011;1513;47.650;10.720;2023-05-02T12:14:03;7.00;;;5.30;;
3006;SDS011;1513;47.650;10.720;2023-05-02T12:16:33;6.70;;;6.00;;
3006;SDS011;1513;47.650;10.720;2023-05-02T12:19:00;7.07;;;6.00;;
3006;SDS011;1513;47.650;10.720;2023-05-02T12:21:27;6.70;;;5.70;;
3006;SDS011;1513;47.650;10.720;2023-05-02T12:23:54;10.43;;;6.67;;
3006;SDS011;1513;47.650;10.720;2023-05-02T12:26:24;8.17;;;6.63;;
3006;SDS011;1513;47.650;10.720;2023-05-02T12:28:55;9.97;;;7.33;;
3006;SDS011;1513;47.650;10.720;2023-05-02T12:31:23;10.30;;;7.03;;
3006;SDS011;1513;47.650;10.720;2023-05-02T12:33:51;11.27;;;7.17;;
3006;SDS011;1513;47.650;10.720;2023-05-02T12:36:21;7.97;;;6.70;;
3006;SDS011;1513;47.650;10.720;2023-05-02T12:38:52;9.30;;;6.77;;
3006;SDS011;1513;47.650;10.720;2023-05-02T12:41:34;6.90;;;5.37;;
3006;SDS011;1513;47.650;10.720;2023-05-02T12:44:04;5.57;;;4.70;;
3006;SDS011;1513;47.650;10.720;2023-05-02T12:46:31;4.73;;;4.23;;
3006;SDS011;1513;47.650;10.720;2023-05-02T12:49:04;5.07;;;3.60;;
3006;SDS011;1513;47.650;10.720;2023-05-02T12:51:33;4.70;;;3.27;;
3006;SDS011;1513;47.650;10.720;2023-05-02T12:54:00;3.40;;;3.10;;
3006;SDS011;1513;47.650;10.720;2023-05-02T12:56:27;3.07;;;2.87;;
3006;SDS011;1513;47.650;10.720;2023-05-02T12:58:56;2.60;;;2.40;;
3006;SDS011;1513;47.650;10.720;2023-05-02T13:01:25;2.60;;;2.40;;
3006;SDS011;1513;47.650;10.720;2023-05-02T13:03:52;3.37;;;2.20;;
3006;SDS011;1513;47.650;10.720;2023-05-02T13:06:19;2.57;;;2.40;;
3006;SDS011;1513;47.650;10.720;2023-05-02T13:08:45;2.40;;;2.20;;
3006;SDS011;1513;47.650;10.720;2023-05-02T13:11:12;1.97;;;1.87;;
3006;SDS011;1513;47.650;10.720;2023-05-02T13:13:38;2.10;;;2.00;;
3006;SDS011;1513;47.650;10.720;2023-05-02T13:16:05;30.67;;;19.97;;
3006;SDS011;1513;47.650;10.720;2023-05-02T13:18:32;24.23;;;15.40;;
3006;SDS011;1513;47.650;10.720;2023-05-02T13:20:58;6.00;;;4.80;;
3006;SDS011;1513;47.650;10.720;2023-05-02T13:23:24;5.50;;;5.00;;
3006;SDS011;1513;47.650;10.720;2023-05-02T13:25:51;2.17;;;2.03;;
3006;SDS011;1513;47.650;10.720;2023-05-02T13:28:17;2.53;;;2.40;;
3006;SDS011;1513;47.650;10.720;2023-05-02T13:30:43;3.30;;;3.00;;
3006;SDS011;1513;47.650;10.720;2023-05-02T13:33:10;2.30;;;2.10;;
3006;SDS011;1513;47.650;10.720;2023-05-02T13:35:36;2.23;;;2.13;;
3006;SDS011;1513;47.650;10.720;2023-05-02T13:38:02;1.80;;;1.70;;
3006;SDS011;1513;47.650;10.720;2023-05-02T13:40:29;1.97;;;1.87;;
3006;SDS011;1513;47.650;10.720;2023-05-02T13:42:55;2.00;;;1.80;;
3006;SDS011;1513;47.650;10.720;2023-05-02T13:45:22;2.37;;;1.93;;
3006;SDS011;1513;47.650;10.720;2023-05-02T13:47:48;1.97;;;1.87;;
3006;SDS011;1513;47.650;10.720;2023-05-02T13:50:14;2.40;;;2.20;;
3006;SDS011;1513;47.650;10.720;2023-05-02T13:52:41;2.20;;;2.10;;
3006;SDS011;1513;47.650;10.720;2023-05-02T13:55:07;2.53;;;2.33;;
3006;SDS011;1513;47.650;10.720;2023-05-02T13:57:33;3.13;;;2.87;;
3006;SDS011;1513;47.650;10.720;2023-05-02T14:00:00;2.37;;;2.17;;
3006;SDS011;1513;47.650;10.720;2023-05-02T14:02:30;2.00;;;1.90;;
3006;SDS011;1513;47.650;10.720;2023-05-02T14:04:56;1.70;;;1.60;;
3006;SDS011;1513;47.650;10.720;2023-05-02T14:07:23;1.87;;;1.77;;
3006;SDS011;1513;47.650;10.720;2023-05-02T14:09:49;2.10;;;2.00;;
3006;SDS011;1513;47.650;10.720;2023-05-02T14:12:15;2.50;;;2.37;;
3006;SDS011;1513;47.650;10.720;2023-05-02T14:14:42;2.60;;;2.37;;
3006;SDS011;1513;47.650;10.720;2023-05-02T14:17:08;2.30;;;2.10;;
3006;SDS011;1513;47.650;10.720;2023-05-02T14:19:34;2.13;;;2.03;;
3006;SDS011;1513;47.650;10.720;2023-05-02T14:22:01;1.90;;;1.80;;
3006;SDS011;1513;47.650;10.720;2023-05-02T14:24:27;2.53;;;2.33;;
3006;SDS011;1513;47.650;10.720;2023-05-02T14:26:54;2.17;;;1.97;;
3006;SDS011;1513;47.650;10.720;2023-05-02T14:29:20;3.53;;;2.20;;
3006;SDS011;1513;47.650;10.720;2023-05-02T14:31:46;2.70;;;2.50;;
3006;SDS011;1513;47.650;10.720;2023-05-02T14:34:13;2.03;;;1.93;;
3006;SDS011;1513;47.650;10.720;2023-05-02T14:36:39;2.40;;;2.20;;
3006;SDS011;1513;47.650;10.720;2023-05-02T14:39:06;1.83;;;1.73;;
3006;SDS011;1513;47.650;10.720;2023-05-02T14:41:32;2.67;;;2.43;;
3006;SDS011;1513;47.650;10.720;2023-05-02T14:43:58;2.63;;;2.43;;
3006;SDS011;1513;47.650;10.720;2023-05-02T14:46:24;3.00;;;2.73;;
3006;SDS011;1513;47.650;10.720;2023-05-02T14:48:51;8.30;;;6.67;;
3006;SDS011;1513;47.650;10.720;2023-05-02T14:51:17;6.57;;;5.00;;
3006;SDS011;1513;47.650;10.720;2023-05-02T14:53:43;5.87;;;5.20;;
3006;SDS011;1513;47.650;10.720;2023-05-02T14:56:12;4.10;;;3.70;;
3006;SDS011;1513;47.650;10.720;2023-05-02T14:58:41;4.03;;;3.37;;
3006;SDS011;1513;47.650;10.720;2023-05-02T15:01:20;3.93;;;3.53;;
3006;SDS011;1513;47.650;10.720;2023-05-02T15:03:47;6.10;;;4.07;;
3006;SDS011;1513;47.650;10.720;2023-05-02T15:06:14;3.23;;;2.90;;
3006;SDS011;1513;47.650;10.720;2023-05-02T15:08:41;3.43;;;3.13;;
3006;SDS011;1513;47.650;10.720;2023-05-02T15:11:11;3.07;;;2.87;;
3006;SDS011;1513;47.650;10.720;2023-05-02T15:13:37;3.50;;;3.20;;
3006;SDS011;1513;47.650;10.720;2023-05-02T15:16:04;3.80;;;3.50;;
3006;SDS011;1513;47.650;10.720;2023-05-02T15:18:30;4.17;;;3.70;;
3006;SDS011;1513;47.650;10.720;2023-05-02T15:20:56;4.03;;;3.57;;
3006;SDS011;1513;47.650;10.720;2023-05-02T15:23:23;3.37;;;3.10;;
3006;SDS011;1513;47.650;10.720;2023-05-02T15:25:49;4.20;;;3.80;;
3006;SDS011;1513;47.650;10.720;2023-05-02T15:28:16;3.93;;;3.60;;
3006;SDS011;1513;47.650;10.720;2023-05-02T15:30:42;3.97;;;3.53;;
3006;SDS011;1513;47.650;10.720;2023-05-02T15:33:09;4.33;;;3.93;;
3006;SDS011;1513;47.650;10.720;2023-05-02T15:35:35;5.40;;;4.40;;
3006;SDS011;1513;47.650;10.720;2023-05-02T15:38:01;4.50;;;4.10;;
3006;SDS011;1513;47.650;10.720;2023-05-02T15:40:27;4.20;;;3.80;;
3006;SDS011;1513;47.650;10.720;2023-05-02T15:42:54;4.43;;;4.00;;
3006;SDS011;1513;47.650;10.720;2023-05-02T15:45:20;4.80;;;4.40;;
3006;SDS011;1513;47.650;10.720;2023-05-02T15:47:46;6.30;;;4.17;;
3006;SDS011;1513;47.650;10.720;2023-05-02T15:50:13;5.27;;;4.20;;
3006;SDS011;1513;47.650;10.720;2023-05-02T15:52:40;4.70;;;4.20;;
3006;SDS011;1513;47.650;10.720;2023-05-02T15:55:06;4.70;;;4.20;;
3006;SDS011;1513;47.650;10.720;2023-05-02T15:57:32;4.70;;;4.07;;